Time;durP1;ratioP1;P1;durP2;ratioP2;P2;SDS_P1;SDS_P2;PMS_P1;PMS_P2;Temp;Humidity;BMP_temperature;BMP_pressure;BME280_temperature;BME280_humidity;BME280_pressure;Samples;Min_cycle;Max_cycle;Signal;HPM_P1;HPM_P2
2021/08/20 00:00:54;;;;;;;0.00;0.00;;;17.40;99.90;;;;;;5094544;28;20040;-82
2021/08/20 00:03:41;;;;;;;0.00;0.00;;;17.30;99.90;;;;;;5094011;28;20051;-86
2021/08/20 00:06:28;;;;;;;0.00;0.00;;;17.20;99.90;;;;;;5088714;28;20055;-81
2021/08/20 00:09:16;;;;;;;0.00;0.00;;;17.20;99.90;;;;;;5108083;27;20083;-85
2021/08/20 00:12:05;;;;;;;0.00;0.00;;;17.20;99.90;;;;;;5097510;28;20504;-83
2021/08/20 00:14:55;;;;;;;0.00;0.00;;;17.20;99.90;;;;;;5090940;28;20071;-86
2021/08/20 00:17:42;;;;;;;0.00;0.00;;;17.20;99.90;;;;;;5097225;28;20072;-86
2021/08/20 00:20:29;;;;;;;0.00;0.00;;;17.30;99.90;;;;;;5100387;28;20058;-85
2021/08/20 00:23:17;;;;;;;0.00;0.00;;;17.30;99.90;;;;;;5098116;27;20048;-83
2021/08/20 00:26:05;;;;;;;0.00;0.00;;;17.20;99.90;;;;;;5100614;28;20149;-85
2021/08/20 00:28:52;;;;;;;0.00;0.00;;;17.20;99.90;;;;;;5100639;28;20048;-84
2021/08/20 00:31:39;;;;;;;0.00;0.00;;;17.30;99.90;;;;;;5104783;27;20057;-80
2021/08/20 00:34:27;;;;;;;0.00;0.00;;;;;;;;;;5098441;28;20042;-85
2021/08/20 00:37:14;;;;;;;0.00;0.00;;;17.20;99.90;;;;;;5099199;28;20118;-86
2021/08/20 00:40:03;;;;;;;0.00;0.00;;;17.10;99.90;;;;;;5099031;28;20126;-82
2021/08/20 00:42:52;;;;;;;0.00;0.00;;;17.10;99.90;;;;;;5112201;27;20039;-83
2021/08/20 00:45:53;;;;;;;0.00;0.00;;;17.00;99.90;;;;;;5100141;28;20514;-84
2021/08/20 00:48:41;;;;;;;0.00;0.00;;;16.90;99.90;;;;;;5099623;28;20047;-86
2021/08/20 00:51:33;;;;;;;0.00;0.00;;;16.90;99.90;;;;;;5099511;28;20051;-82
2021/08/20 00:54:20;;;;;;;0.00;0.00;;;;;;;;;;5101573;28;20067;-85
2021/08/20 00:57:08;;;;;;;0.00;0.00;;;16.70;99.90;;;;;;5095769;28;20130;-86
2021/08/20 01:05:18;;;;;;;0.00;0.00;;;16.90;99.90;;;;;;5067977;28;20135;-88
2021/08/20 01:08:06;;;;;;;0.00;0.00;;;15.90;99.90;;;;;;5065551;28;20066;-88
2021/08/20 01:10:55;;;;;;;0.00;0.00;;;16.90;99.90;;;;;;5070142;28;20614;-87
2021/08/20 01:13:42;;;;;;;0.00;0.00;;;16.90;99.90;;;;;;5089949;28;20127;-88
2021/08/20 01:16:31;;;;;;;0.00;0.00;;;16.90;99.90;;;;;;5087885;28;20097;-89
2021/08/20 01:19:18;;;;;;;0.00;0.00;;;16.90;99.90;;;;;;5086927;28;20133;-88
2021/08/20 01:22:08;;;;;;;0.00;0.00;;;16.90;99.90;;;;;;5075142;28;20522;-87
2021/08/20 01:24:58;;;;;;;0.00;0.00;;;16.90;99.90;;;;;;5073346;28;20048;-87
2021/08/20 01:27:46;;;;;;;0.00;0.00;;;16.90;99.90;;;;;;5061974;28;20036;-87
2021/08/20 01:30:33;;;;;;;0.00;0.00;;;16.80;99.90;;;;;;5081589;28;20170;-88
2021/08/20 01:33:20;;;;;;;0.00;0.00;;;16.80;99.90;;;;;;5103352;28;20044;-89
2021/08/20 01:36:11;;;;;;;0.00;0.00;;;16.70;99.90;;;;;;5076384;28;20145;-89
2021/08/20 01:38:58;;;;;;;0.00;0.00;;;16.70;99.90;;;;;;5104886;28;20061;-87
2021/08/20 01:41:46;;;;;;;0.00;0.00;;;16.60;99.90;;;;;;5076225;28;20500;-89
2021/08/20 01:44:33;;;;;;;0.00;0.00;;;16.50;99.90;;;;;;5079713;28;20047;-88
2021/08/20 01:47:20;;;;;;;0.10;0.10;;;16.50;99.90;;;;;;5075127;28;20068;-87
2021/08/20 01:50:10;;;;;;;0.00;0.00;;;16.50;99.90;;;;;;5078286;28;20127;-85
2021/08/20 01:52:57;;;;;;;;;;;16.50;99.90;;;;;;5076337;28;20798;-87
2021/08/20 01:55:45;;;;;;;0.00;0.00;;;16.40;99.90;;;;;;5078651;28;19926;-89
2021/08/20 01:58:33;;;;;;;0.10;0.10;;;16.40;99.90;;;;;;5081509;28;20622;-88
2021/08/20 02:01:21;;;;;;;0.00;0.00;;;;;;;;;;5072553;28;20181;-89
2021/08/20 02:04:08;;;;;;;0.00;0.00;;;16.30;99.90;;;;;;5077663;28;20499;-87
2021/08/20 02:06:55;;;;;;;0.00;0.00;;;16.60;99.90;;;;;;5076636;28;20119;-89
2021/08/20 02:09:47;;;;;;;0.03;0.03;;;16.30;99.90;;;;;;5076999;28;20121;-87
2021/08/20 02:12:34;;;;;;;0.00;0.00;;;16.30;99.90;;;;;;5080295;28;20050;-89
2021/08/20 02:15:22;;;;;;;0.00;0.00;;;16.30;99.90;;;;;;5077699;28;20567;-87
2021/08/20 02:18:10;;;;;;;0.00;0.00;;;16.20;99.90;;;;;;5091842;28;20059;-89
2021/08/20 02:20:57;;;;;;;0.00;0.00;;;16.20;99.90;;;;;;5084933;28;20039;-88
2021/08/20 02:23:44;;;;;;;0.00;0.00;;;16.30;99.90;;;;;;5072678;28;20102;-87
2021/08/20 02:26:33;;;;;;;;;;;16.30;99.90;;;;;;5092411;28;20048;-88
2021/08/20 02:29:20;;;;;;;0.00;0.00;;;16.20;99.90;;;;;;5083611;28;19924;-88
2021/08/20 02:32:09;;;;;;;0.00;0.00;;;16.20;99.90;;;;;;5098335;28;20056;-89
2021/08/20 02:34:56;;;;;;;0.00;0.00;;;16.20;99.90;;;;;;5079571;28;20090;-86
2021/08/20 02:37:43;;;;;;;0.00;0.00;;;16.20;99.90;;;;;;5077422;28;20079;-89
2021/08/20 02:40:31;;;;;;;0.00;0.00;;;16.20;99.90;;;;;;5077075;28;20045;-87
2021/08/20 02:43:18;;;;;;;0.10;0.10;;;16.10;99.90;;;;;;5074001;28;20092;-88
2021/08/20 02:46:05;;;;;;;0.00;0.00;;;16.20;99.90;;;;;;5094774;28;20129;-87
2021/08/20 02:48:53;;;;;;;0.00;0.00;;;16.20;99.90;;;;;;5078343;28;20048;-87
2021/08/20 02:51:40;;;;;;;0.00;0.00;;;16.30;99.90;;;;;;5078101;28;20056;-89
2021/08/20 02:54:27;;;;;;;0.00;0.00;;;16.30;99.90;;;;;;5093645;28;20050;-88
2021/08/20 02:57:14;;;;;;;0.00;0.00;;;16.30;99.90;;;;;;5074868;28;20136;-88
2021/08/20 03:00:02;;;;;;;0.00;0.00;;;17.20;99.90;;;;;;5095445;28;20099;-86
2021/08/20 03:02:49;;;;;;;0.00;0.00;;;16.20;99.90;;;;;;5082570;28;20431;-86
2021/08/20 03:05:39;;;;;;;0.00;0.00;;;16.20;99.90;;;;;;5074683;28;20052;-88
2021/08/20 03:08:26;;;;;;;0.00;0.00;;;16.10;99.90;;;;;;5079363;28;20131;-89
2021/08/20 03:11:13;;;;;;;0.00;0.00;;;16.20;99.90;;;;;;5079052;28;20101;-87
2021/08/20 03:14:00;;;;;;;0.00;0.00;;;19.20;99.90;;;;;;5094363;28;20045;-87
2021/08/20 03:16:47;;;;;;;0.00;0.00;;;16.10;99.90;;;;;;5078926;28;20059;-87
2021/08/20 03:19:34;;;;;;;0.00;0.00;;;;;;;;;;5061080;28;20068;-88
2021/08/20 03:22:23;;;;;;;0.00;0.00;;;16.20;99.90;;;;;;5091486;28;20035;-89
2021/08/20 03:25:11;;;;;;;0.00;0.00;;;16.20;99.90;;;;;;5093479;28;20052;-88
2021/08/20 03:27:58;;;;;;;0.00;0.00;;;16.10;99.90;;;;;;5091732;28;20127;-89
2021/08/20 03:30:46;;;;;;;0.00;0.00;;;;;;;;;;5085588;28;20044;-87
2021/08/20 03:33:33;;;;;;;0.00;0.00;;;16.20;99.90;;;;;;5089048;28;20044;-90
2021/08/20 03:36:20;;;;;;;0.00;0.00;;;16.20;99.90;;;;;;5077285;28;20044;-86
2021/08/20 03:39:09;;;;;;;0.00;0.00;;;16.20;99.90;;;;;;5070866;28;20040;-86
2021/08/20 03:41:56;;;;;;;0.00;0.00;;;16.20;99.90;;;;;;5077622;28;20039;-86
2021/08/20 03:44:43;;;;;;;0.00;0.00;;;16.20;99.90;;;;;;5091189;28;20043;-87
2021/08/20 03:47:30;;;;;;;0.00;0.00;;;16.20;99.90;;;;;;5091234;28;20504;-87
2021/08/20 03:50:17;;;;;;;0.00;0.00;;;16.10;99.90;;;;;;5071096;28;20539;-86
2021/08/20 03:53:05;;;;;;;0.00;0.00;;;;;;;;;;5065522;28;20048;-88
2021/08/20 03:55:53;;;;;;;0.00;0.00;;;16.10;99.90;;;;;;5074314;28;20399;-86
2021/08/20 03:58:40;;;;;;;0.00;0.00;;;16.10;99.90;;;;;;5070751;28;20189;-86
2021/08/20 04:01:27;;;;;;;0.00;0.00;;;16.10;99.90;;;;;;5078504;28;20051;-87
2021/08/20 04:04:15;;;;;;;0.00;0.00;;;16.10;99.90;;;;;;5085837;28;20162;-89
2021/08/20 04:07:03;;;;;;;0.00;0.00;;;16.00;99.90;;;;;;5073727;28;20044;-85
2021/08/20 04:09:50;;;;;;;0.00;0.00;;;16.10;99.90;;;;;;5088997;28;20067;-87
2021/08/20 04:12:38;;;;;;;0.00;0.00;;;16.00;99.90;;;;;;5070932;28;20044;-87
2021/08/20 04:15:26;;;;;;;0.00;0.00;;;;;;;;;;5082422;28;20055;-85
2021/08/20 04:18:13;;;;;;;0.00;0.00;;;;;;;;;;5094375;28;20039;-88
2021/08/20 04:21:01;;;;;;;0.00;0.00;;;16.10;99.90;;;;;;5090703;28;20478;-87
2021/08/20 04:23:49;;;;;;;0.00;0.00;;;16.10;99.90;;;;;;5072805;28;20783;-86
2021/08/20 04:26:36;;;;;;;0.00;0.00;;;16.10;99.90;;;;;;5071322;28;20127;-90
2021/08/20 04:29:24;;;;;;;0.00;0.00;;;16.10;99.90;;;;;;5077356;28;20118;-88
2021/08/20 04:32:11;;;;;;;0.00;0.00;;;16.10;99.90;;;;;;5077385;28;20075;-89
2021/08/20 04:34:59;;;;;;;0.00;0.00;;;;;;;;;;5087239;28;20048;-89
2021/08/20 04:37:46;;;;;;;0.00;0.00;;;16.10;99.90;;;;;;5086511;28;20069;-88
2021/08/20 04:40:33;;;;;;;0.10;0.10;;;16.20;99.90;;;;;;5067914;28;20124;-85
2021/08/20 04:43:20;;;;;;;0.00;0.00;;;16.20;99.90;;;;;;5074674;28;20121;-87
2021/08/20 04:46:09;;;;;;;0.00;0.00;;;16.20;99.90;;;;;;5071374;28;20163;-86
2021/08/20 04:48:56;;;;;;;0.00;0.00;;;16.10;99.90;;;;;;5074973;28;20462;-89
2021/08/20 04:51:43;;;;;;;0.00;0.00;;;16.10;99.90;;;;;;5078141;28;20479;-89
2021/08/20 04:54:30;;;;;;;0.00;0.00;;;16.10;99.90;;;;;;5073007;28;20168;-89
2021/08/20 04:57:17;;;;;;;0.00;0.00;;;16.20;99.90;;;;;;5087008;28;20054;-86
2021/08/20 05:00:07;;;;;;;0.00;0.00;;;16.20;99.90;;;;;;5071899;28;20496;-87
2021/08/20 05:02:55;;;;;;;0.00;0.00;;;16.10;99.90;;;;;;5073380;28;20056;-88
2021/08/20 05:05:44;;;;;;;0.00;0.00;;;16.10;99.90;;;;;;5078765;28;20449;-87
2021/08/20 05:08:31;;;;;;;0.00;0.00;;;16.10;99.90;;;;;;5095744;28;20048;-88
2021/08/20 05:11:19;;;;;;;0.00;0.00;;;16.20;99.90;;;;;;5071282;28;20091;-88
2021/08/20 05:14:06;;;;;;;0.00;0.00;;;16.10;99.90;;;;;;5076933;28;20036;-89
2021/08/20 05:16:53;;;;;;;0.00;0.00;;;;;;;;;;5087158;28;20128;-88
2021/08/20 05:19:42;;;;;;;0.00;0.00;;;16.10;99.90;;;;;;5091722;28;20043;-89
2021/08/20 05:22:41;;;;;;;0.00;0.00;;;16.20;99.90;;;;;;5070482;28;20503;-88
2021/08/20 05:25:34;;;;;;;0.00;0.00;;;16.20;99.90;;;;;;5082161;28;20399;-89
2021/08/20 05:28:22;;;;;;;0.00;0.00;;;;;;;;;;5067120;28;20051;-89
2021/08/20 05:31:09;;;;;;;0.00;0.00;;;16.40;99.90;;;;;;5076723;28;20040;-87
2021/08/20 05:33:56;;;;;;;0.00;0.00;;;;;;;;;;5077496;28;20420;-84
2021/08/20 05:36:45;;;;;;;0.00;0.00;;;16.30;99.90;;;;;;5074014;28;20044;-89
2021/08/20 05:39:32;;;;;;;0.00;0.00;;;16.40;99.90;;;;;;5070717;28;20127;-88
2021/08/20 05:42:19;;;;;;;0.00;0.00;;;;;;;;;;5077430;28;20115;-88
2021/08/20 05:45:08;;;;;;;0.00;0.00;;;16.40;99.90;;;;;;5084554;28;20041;-87
2021/08/20 05:47:55;;;;;;;0.00;0.00;;;16.50;99.90;;;;;;5075574;28;20058;-88
2021/08/20 05:50:42;;;;;;;0.00;0.00;;;16.50;99.90;;;;;;5093753;27;20099;-87
2021/08/20 05:53:31;;;;;;;0.00;0.00;;;16.50;99.90;;;;;;5078891;28;20048;-88
2021/08/20 05:56:18;;;;;;;0.00;0.00;;;16.50;99.90;;;;;;5068389;28;20119;-87
2021/08/20 05:59:05;;;;;;;0.00;0.00;;;16.60;99.90;;;;;;5091811;28;20050;-89
2021/08/20 06:01:52;;;;;;;0.00;0.00;;;16.50;99.90;;;;;;5094539;28;20070;-85
2021/08/20 06:04:40;;;;;;;0.00;0.00;;;16.40;99.90;;;;;;5092635;28;20415;-88
2021/08/20 06:07:27;;;;;;;0.00;0.00;;;16.40;99.90;;;;;;5077025;28;20074;-87
2021/08/20 06:10:17;;;;;;;0.00;0.00;;;16.40;99.90;;;;;;5070396;28;20131;-86
2021/08/20 06:13:05;;;;;;;0.00;0.00;;;16.40;99.90;;;;;;5090629;28;20574;-87
2021/08/20 06:15:52;;;;;;;0.00;0.00;;;;;;;;;;5081821;28;20040;-87
2021/08/20 06:18:39;;;;;;;0.00;0.00;;;16.30;99.90;;;;;;5074043;28;20126;-87
2021/08/20 06:21:27;;;;;;;0.00;0.00;;;;;;;;;;5097325;28;20052;-89
2021/08/20 06:24:14;;;;;;;0.00;0.00;;;16.20;99.90;;;;;;5079961;28;20044;-87
2021/08/20 06:27:02;;;;;;;0.00;0.00;;;16.30;99.90;;;;;;5071530;28;20395;-88
2021/08/20 06:29:50;;;;;;;0.00;0.00;;;16.30;99.90;;;;;;5071885;28;20054;-85
2021/08/20 06:32:37;;;;;;;0.00;0.00;;;16.30;99.90;;;;;;5070079;28;20066;-87
2021/08/20 06:35:24;;;;;;;0.00;0.00;;;16.30;99.90;;;;;;5070790;28;20046;-87
2021/08/20 06:38:11;;;;;;;0.00;0.00;;;16.20;99.90;;;;;;5078725;28;20040;-87
2021/08/20 06:40:59;;;;;;;0.00;0.00;;;;;;;;;;5090335;28;20418;-87
2021/08/20 06:43:47;;;;;;;0.00;0.00;;;16.30;99.90;;;;;;5075160;28;20666;-86
2021/08/20 06:46:35;;;;;;;0.00;0.00;;;16.40;99.90;;;;;;5066653;28;20119;-88
2021/08/20 06:49:22;;;;;;;0.00;0.00;;;16.50;99.90;;;;;;5085232;28;20052;-86
2021/08/20 06:52:10;;;;;;;0.00;0.00;;;;;;;;;;5074403;28;20485;-86
2021/08/20 06:54:58;;;;;;;0.00;0.00;;;;;;;;;;5069318;28;20044;-86
2021/08/20 06:57:46;;;;;;;0.00;0.00;;;16.50;99.90;;;;;;5080608;28;20054;-86
2021/08/20 07:00:34;;;;;;;0.00;0.00;;;16.50;99.90;;;;;;5081101;28;20044;-86
2021/08/20 07:03:22;;;;;;;0.00;0.00;;;16.50;99.90;;;;;;5075930;28;20055;-87
2021/08/20 07:06:17;;;;;;;0.00;0.00;;;16.50;99.90;;;;;;5088985;27;20035;-89
2021/08/20 07:09:04;;;;;;;0.00;0.00;;;;;;;;;;5090319;28;20519;-88
2021/08/20 07:11:52;;;;;;;0.00;0.00;;;16.30;99.90;;;;;;5079856;28;20051;-88
2021/08/20 07:14:39;;;;;;;0.00;0.00;;;16.30;99.90;;;;;;5094637;28;20135;-87
2021/08/20 07:17:27;;;;;;;0.00;0.00;;;16.30;99.90;;;;;;5077527;28;20182;-89
2021/08/20 07:20:15;;;;;;;0.00;0.00;;;;;;;;;;5078096;28;20039;-86
2021/08/20 07:23:04;;;;;;;0.00;0.00;;;16.50;99.90;;;;;;5076337;28;20123;-89
2021/08/20 07:25:51;;;;;;;0.00;0.00;;;16.50;99.90;;;;;;5091103;28;20044;-89
2021/08/20 07:28:38;;;;;;;0.00;0.00;;;16.50;99.90;;;;;;5093650;28;20059;-89
2021/08/20 07:31:26;;;;;;;0.00;0.00;;;16.70;99.90;;;;;;5072968;28;20162;-89
2021/08/20 07:34:14;;;;;;;0.00;0.00;;;16.70;99.90;;;;;;5092412;28;20096;-88
2021/08/20 07:37:02;;;;;;;0.00;0.00;;;16.70;99.90;;;;;;5095049;28;20186;-89
2021/08/20 07:39:49;;;;;;;0.00;0.00;;;16.80;99.90;;;;;;5078731;28;20040;-87
2021/08/20 07:42:36;;;;;;;0.00;0.00;;;16.80;99.90;;;;;;5081576;28;20133;-89
2021/08/20 07:45:24;;;;;;;0.00;0.00;;;;;;;;;;5079345;28;20112;-88
2021/08/20 07:48:12;;;;;;;0.00;0.00;;;17.10;99.90;;;;;;5088211;28;20559;-88
2021/08/20 07:51:01;;;;;;;0.00;0.00;;;17.10;99.90;;;;;;5072362;28;20108;-88
2021/08/20 07:53:48;;;;;;;0.00;0.00;;;17.10;99.90;;;;;;5063814;28;20124;-88
2021/08/20 07:56:35;;;;;;;0.00;0.00;;;17.20;99.90;;;;;;5066217;28;20040;-88
2021/08/20 07:59:23;;;;;;;0.00;0.00;;;17.30;99.90;;;;;;5072901;28;20047;-88
2021/08/20 08:02:11;;;;;;;0.00;0.00;;;17.50;99.90;;;;;;5072335;28;20152;-88
2021/08/20 08:04:59;;;;;;;0.00;0.00;;;18.70;99.90;;;;;;5074979;28;20040;-88
2021/08/20 08:07:47;;;;;;;0.00;0.00;;;17.50;99.90;;;;;;5072889;28;20637;-87
2021/08/20 08:10:35;;;;;;;0.00;0.00;;;17.80;99.90;;;;;;5084351;28;20099;-89
2021/08/20 08:13:22;;;;;;;0.00;0.00;;;18.10;99.90;;;;;;5082011;28;20102;-89
2021/08/20 08:16:09;;;;;;;0.00;0.00;;;18.40;99.90;;;;;;5086924;28;20040;-89
2021/08/20 08:18:57;;;;;;;0.00;0.00;;;18.60;99.90;;;;;;5083051;28;20492;-88
2021/08/20 08:21:44;;;;;;;0.00;0.00;;;19.30;99.90;;;;;;5068852;28;20121;-89
2021/08/20 08:24:33;;;;;;;0.00;0.00;;;18.80;99.90;;;;;;5085855;28;20551;-88
2021/08/20 08:27:21;;;;;;;0.00;0.00;;;;;;;;;;5078547;28;20059;-88
2021/08/20 08:30:09;;;;;;;0.00;0.00;;;18.90;99.90;;;;;;5079775;28;20468;-87
2021/08/20 08:32:58;;;;;;;0.00;0.00;;;18.60;99.90;;;;;;5068127;28;20223;-87
2021/08/20 08:35:45;;;;;;;;;;;18.80;99.90;;;;;;5073832;28;20250;-87
2021/08/20 08:38:33;;;;;;;0.00;0.00;;;18.80;99.90;;;;;;5074729;28;19970;-86
2021/08/20 08:41:22;;;;;;;0.00;0.00;;;18.80;99.90;;;;;;5087207;28;20100;-90
2021/08/20 08:44:10;;;;;;;0.00;0.00;;;19.00;99.90;;;;;;5092155;28;20119;-89
2021/08/20 08:46:58;;;;;;;0.00;0.00;;;19.20;99.90;;;;;;5087256;28;20119;-88
2021/08/20 08:49:48;;;;;;;0.00;0.00;;;19.40;99.90;;;;;;5076128;28;20503;-88
2021/08/20 08:52:36;;;;;;;;;;;19.60;99.90;;;;;;5091092;28;20141;-88
2021/08/20 08:55:23;;;;;;;0.00;0.00;;;19.80;99.90;;;;;;5092147;28;19919;-89
2021/08/20 08:58:12;;;;;;;0.00;0.00;;;19.70;99.90;;;;;;5076403;28;20048;-88
2021/08/20 09:00:59;;;;;;;0.00;0.00;;;19.70;99.90;;;;;;5073144;28;20040;-89
2021/08/20 09:03:46;;;;;;;0.00;0.00;;;;;;;;;;5087216;28;20127;-88
2021/08/20 09:06:39;;;;;;;0.00;0.00;;;19.20;99.90;;;;;;5071768;28;20088;-89
2021/08/20 09:09:27;;;;;;;0.00;0.00;;;19.40;99.90;;;;;;5074117;28;20052;-89
2021/08/20 09:12:26;;;;;;;0.00;0.00;;;19.70;99.90;;;;;;5075810;28;20119;-88
2021/08/20 09:15:15;;;;;;;;;;;19.70;99.90;;;;;;5069962;28;20119;-89
2021/08/20 09:18:03;;;;;;;0.00;0.00;;;19.80;99.90;;;;;;5084808;28;19996;-89
2021/08/20 09:20:50;;;;;;;0.00;0.00;;;19.80;99.90;;;;;;5076954;28;20179;-89
2021/08/20 09:23:38;;;;;;;0.00;0.00;;;19.80;99.90;;;;;;5075148;28;20054;-88
2021/08/20 09:26:25;;;;;;;0.00;0.00;;;19.70;99.90;;;;;;5090376;28;20040;-87
2021/08/20 09:29:12;;;;;;;0.00;0.00;;;19.50;99.90;;;;;;5089684;28;20135;-89
2021/08/20 09:32:00;;;;;;;0.00;0.00;;;20.40;99.90;;;;;;5072220;28;20129;-88
2021/08/20 09:34:48;;;;;;;0.00;0.00;;;19.40;99.90;;;;;;5092563;28;20077;-88
2021/08/20 09:37:36;;;;;;;0.00;0.00;;;19.50;99.90;;;;;;5087218;28;20071;-87
2021/08/20 09:40:24;;;;;;;0.00;0.00;;;19.70;99.90;;;;;;5089813;28;20039;-88
2021/08/20 09:43:21;;;;;;;0.00;0.00;;;19.90;99.90;;;;;;5075948;28;20178;-89
2021/08/20 09:46:10;;;;;;;0.00;0.00;;;20.10;99.90;;;;;;5086306;28;20064;-88
2021/08/20 09:49:02;;;;;;;0.00;0.00;;;20.40;99.90;;;;;;5073567;28;20129;-89
2021/08/20 09:51:50;;;;;;;0.00;0.00;;;20.80;99.90;;;;;;5072401;28;20370;-87
2021/08/20 09:54:41;;;;;;;0.00;0.00;;;20.90;99.90;;;;;;5069474;28;20514;-87
2021/08/20 09:57:28;;;;;;;0.00;0.00;;;22.20;99.90;;;;;;5094630;28;20040;-89
2021/08/20 10:00:15;;;;;;;0.00;0.00;;;20.90;99.90;;;;;;5089700;28;20055;-89
2021/08/20 10:03:06;;;;;;;0.00;0.00;;;20.90;99.90;;;;;;5094954;28;20154;-89
2021/08/20 10:05:56;;;;;;;0.00;0.00;;;20.60;99.90;;;;;;5115852;28;20525;-89
2021/08/20 10:08:43;;;;;;;0.00;0.00;;;20.60;99.90;;;;;;5082260;28;20051;-88
2021/08/20 10:11:33;;;;;;;0.00;0.00;;;20.60;99.90;;;;;;5083121;28;20788;-88
2021/08/20 10:14:24;;;;;;;0.00;0.00;;;20.80;99.90;;;;;;5077289;28;20512;-88
2021/08/20 10:17:11;;;;;;;0.00;0.00;;;21.10;99.90;;;;;;5078033;28;20055;-87
2021/08/20 10:19:59;;;;;;;0.00;0.00;;;21.20;99.90;;;;;;5078639;28;20058;-87
2021/08/20 10:22:48;;;;;;;0.00;0.00;;;21.40;99.90;;;;;;5079359;28;20116;-87
2021/08/20 10:25:36;;;;;;;0.00;0.00;;;;;;;;;;5079968;28;20040;-87
2021/08/20 10:28:24;;;;;;;0.00;0.00;;;21.70;99.90;;;;;;5079689;28;20044;-88
2021/08/20 10:31:14;;;;;;;0.00;0.00;;;21.80;99.90;;;;;;5074356;28;20065;-89
2021/08/20 10:34:21;;;;;;;0.00;0.00;;;22.00;99.90;;;;;;5088088;28;20141;-88
2021/08/20 10:37:10;;;;;;;0.00;0.00;;;21.70;99.90;;;;;;5092713;28;20499;-87
2021/08/20 10:40:10;;;;;;;;;;;21.50;99.90;;;;;;5083956;28;20098;-86
2021/08/20 10:42:57;;;;;;;;;;;21.50;99.90;;;;;;5084515;28;20010;-86
2021/08/20 10:45:46;;;;;;;0.00;0.00;;;21.70;99.90;;;;;;5074280;28;19919;-89
2021/08/20 10:48:33;;;;;;;0.00;0.00;;;21.70;99.90;;;;;;5077165;28;20043;-87
2021/08/20 10:51:58;;;;;;;0.00;0.00;;;21.70;99.90;;;;;;5074894;28;20149;-88
2021/08/20 10:55:27;;;;;;;0.00;0.00;;;21.70;99.80;;;;;;5089319;28;20179;-89
2021/08/20 10:58:15;;;;;;;0.00;0.00;;;22.00;99.90;;;;;;5078302;28;20102;-88
2021/08/20 11:01:17;;;;;;;0.00;0.00;;;21.80;99.90;;;;;;5069452;28;20048;-89
2021/08/20 11:04:05;;;;;;;0.00;0.00;;;21.70;99.90;;;;;;5085465;28;20043;-87
2021/08/20 11:06:52;;;;;;;0.00;0.00;;;21.70;99.90;;;;;;5090223;28;20050;-89
2021/08/20 11:09:41;;;;;;;0.00;0.00;;;21.80;99.90;;;;;;5098974;28;20415;-85
2021/08/20 11:12:44;;;;;;;0.00;0.00;;;21.80;99.90;;;;;;5085157;28;20127;-88
2021/08/20 11:15:43;;;;;;;0.00;0.00;;;21.90;99.90;;;;;;5075177;28;20052;-88
2021/08/20 11:18:43;;;;;;;0.00;0.00;;;21.80;99.90;;;;;;5074507;28;20048;-88
2021/08/20 11:21:51;;;;;;;0.00;0.00;;;21.70;99.90;;;;;;5092926;28;20174;-87
2021/08/20 11:24:38;;;;;;;0.00;0.00;;;21.70;99.90;;;;;;5070823;28;20051;-87
2021/08/20 11:27:26;;;;;;;0.00;0.00;;;21.90;99.90;;;;;;5075927;28;20166;-87
2021/08/20 11:30:17;;;;;;;0.00;0.00;;;22.30;99.90;;;;;;5074998;28;20392;-89
2021/08/20 11:33:22;;;;;;;0.00;0.00;;;22.10;99.90;;;;;;5077273;28;20392;-89
2021/08/20 11:36:13;;;;;;;0.00;0.00;;;22.00;99.90;;;;;;5078907;28;20054;-86
2021/08/20 11:39:02;;;;;;;0.00;0.00;;;21.80;99.90;;;;;;5079538;28;20046;-87
2021/08/20 11:41:53;;;;;;;0.00;0.00;;;21.70;99.90;;;;;;5077068;28;20130;-88
2021/08/20 11:44:42;;;;;;;0.00;0.00;;;21.60;99.90;;;;;;5091543;28;20106;-90
2021/08/20 11:47:31;;;;;;;0.00;0.00;;;21.60;99.90;;;;;;5085591;28;20411;-89
2021/08/20 11:50:18;;;;;;;0.00;0.00;;;21.80;99.90;;;;;;5073646;28;20040;-87
2021/08/20 11:53:05;;;;;;;0.00;0.00;;;21.90;99.90;;;;;;5078141;28;20111;-88
2021/08/20 11:56:08;;;;;;;0.00;0.00;;;21.80;99.90;;;;;;5076182;28;20529;-89
2021/08/20 11:59:11;;;;;;;0.00;0.00;;;21.90;99.90;;;;;;5071715;28;20286;-88
2021/08/20 12:02:00;;;;;;;0.00;0.00;;;22.90;99.90;;;;;;5073282;28;20194;-88
2021/08/20 12:05:11;;;;;;;0.00;0.00;;;22.00;99.90;;;;;;5070089;28;20045;-89
2021/08/20 12:08:13;;;;;;;0.00;0.00;;;22.30;99.90;;;;;;5078375;28;20850;-87
2021/08/20 12:11:00;;;;;;;0.00;0.00;;;22.40;99.90;;;;;;5073972;28;20438;-86
2021/08/20 12:13:49;;;;;;;0.00;0.00;;;22.70;99.90;;;;;;5090314;28;20190;-88
2021/08/20 12:16:41;;;;;;;0.00;0.00;;;22.60;99.90;;;;;;5068795;28;20044;-88
2021/08/20 12:19:33;;;;;;;0.00;0.00;;;22.40;99.90;;;;;;5088749;28;20079;-83
2021/08/20 12:22:32;;;;;;;0.00;0.00;;;22.30;99.90;;;;;;5071404;28;20040;-88
2021/08/20 12:25:20;;;;;;;0.00;0.00;;;22.60;99.90;;;;;;5078053;28;20170;-85
2021/08/20 12:28:10;;;;;;;0.00;0.00;;;23.30;99.90;;;;;;5072361;28;20161;-87
2021/08/20 12:31:04;;;;;;;0.00;0.00;;;23.40;99.90;;;;;;5083152;28;20130;-86
2021/08/20 12:33:59;;;;;;;0.00;0.00;;;23.20;99.90;;;;;;5070828;28;20369;-85
2021/08/20 12:36:53;;;;;;;0.00;0.00;;;23.00;99.80;;;;;;5078265;28;20071;-87
2021/08/20 12:39:43;;;;;;;0.00;0.00;;;22.80;99.90;;;;;;5079164;28;20036;-85
2021/08/20 12:42:30;;;;;;;0.00;0.00;;;22.50;99.90;;;;;;5081452;28;20051;-85
2021/08/20 12:45:19;;;;;;;0.00;0.00;;;22.50;99.90;;;;;;5112624;28;20029;-87
2021/08/20 12:48:09;;;;;;;0.00;0.00;;;22.70;99.90;;;;;;5084209;28;20040;-86
2021/08/20 12:51:02;;;;;;;0.00;0.00;;;22.70;99.90;;;;;;5073011;28;20519;-88
2021/08/20 12:54:00;;;;;;;0.00;0.00;;;22.80;99.90;;;;;;5085603;28;20048;-89
2021/08/20 12:56:48;;;;;;;0.00;0.00;;;22.80;99.90;;;;;;5072720;28;20044;-88
2021/08/20 12:59:36;;;;;;;0.00;0.00;;;25.60;99.90;;;;;;5077690;28;20044;-89
2021/08/20 13:02:23;;;;;;;0.00;0.00;;;22.70;99.90;;;;;;5089117;28;20467;-87
2021/08/20 13:10:58;;;;;;;0.00;0.00;;;22.70;99.90;;;;;;5068972;28;20052;-88
2021/08/20 13:13:46;;;;;;;0.00;0.00;;;22.80;99.90;;;;;;5057500;28;20040;-88
2021/08/20 13:16:33;;;;;;;0.00;0.00;;;22.90;99.90;;;;;;5061324;28;20045;-87
2021/08/20 13:19:21;;;;;;;0.00;0.00;;;23.20;99.90;;;;;;5050777;28;20048;-87
2021/08/20 13:22:08;;;;;;;0.00;0.00;;;23.20;99.90;;;;;;5070449;28;20040;-86
2021/08/20 13:24:55;;;;;;;0.00;0.00;;;23.10;99.90;;;;;;5052305;28;21846;-88
2021/08/20 13:27:42;;;;;;;0.00;0.00;;;23.30;99.90;;;;;;5051422;28;20516;-86
2021/08/20 13:30:31;;;;;;;0.00;0.00;;;22.90;99.90;;;;;;5058700;28;20056;-87
2021/08/20 13:33:18;;;;;;;0.00;0.00;;;22.90;99.90;;;;;;5059580;28;20174;-89
2021/08/20 13:36:06;;;;;;;0.00;0.00;;;22.90;99.90;;;;;;5055314;28;20555;-88
2021/08/20 13:38:56;;;;;;;0.00;0.00;;;22.90;99.90;;;;;;5052128;28;20138;-87
2021/08/20 13:41:43;;;;;;;0.00;0.00;;;22.80;99.90;;;;;;5047770;28;20511;-89
2021/08/20 13:44:32;;;;;;;0.00;0.00;;;23.00;99.80;;;;;;5058386;28;20060;-88
2021/08/20 13:47:20;;;;;;;0.00;0.00;;;22.80;99.80;;;;;;5045518;28;20123;-87
2021/08/20 13:50:08;;;;;;;0.00;0.00;;;22.80;99.90;;;;;;5040953;28;20606;-87
2021/08/20 13:52:56;;;;;;;0.00;0.00;;;22.80;99.90;;;;;;5058285;28;20540;-87
2021/08/20 13:55:43;;;;;;;0.00;0.00;;;23.00;99.90;;;;;;5040510;28;20080;-89
2021/08/20 13:58:32;;;;;;;0.00;0.00;;;23.20;99.70;;;;;;5056249;28;20090;-89
2021/08/20 14:01:20;;;;;;;0.00;0.00;;;23.30;99.90;;;;;;5045146;28;20100;-88
2021/08/20 14:04:08;;;;;;;0.00;0.00;;;23.20;99.20;;;;;;5052608;28;20075;-87
2021/08/20 14:06:55;;;;;;;0.00;0.00;;;22.90;99.90;;;;;;5041953;28;20479;-90
2021/08/20 14:09:43;;;;;;;0.00;0.00;;;23.20;99.90;;;;;;5054234;28;20040;-87
2021/08/20 14:12:30;;;;;;;0.00;0.00;;;23.30;99.90;;;;;;5058266;28;20082;-88
2021/08/20 14:15:17;;;;;;;0.00;0.00;;;23.90;99.90;;;;;;5054913;28;20072;-88
2021/08/20 14:18:05;;;;;;;0.00;0.00;;;23.50;99.90;;;;;;5068288;28;20527;-88
2021/08/20 14:20:53;;;;;;;0.00;0.00;;;24.20;99.90;;;;;;5065688;28;20064;-88
2021/08/20 14:23:41;;;;;;;0.00;0.00;;;23.70;99.40;;;;;;5056703;28;20282;-87
2021/08/20 14:26:28;;;;;;;0.00;0.00;;;23.80;99.90;;;;;;5065298;28;20057;-87
2021/08/20 14:29:15;;;;;;;0.00;0.00;;;25.30;99.90;;;;;;5067959;28;20044;-88
2021/08/20 14:32:03;;;;;;;0.00;0.00;;;23.90;99.90;;;;;;5054805;28;20052;-89
2021/08/20 14:34:50;;;;;;;0.00;0.00;;;23.90;99.60;;;;;;5048473;28;20044;-88
2021/08/20 14:37:39;;;;;;;0.00;0.00;;;24.00;99.00;;;;;;5074499;28;20041;-88
2021/08/20 14:40:27;;;;;;;0.00;0.00;;;;;;;;;;5061061;28;20508;-89
2021/08/20 14:43:15;;;;;;;0.00;0.00;;;23.90;99.90;;;;;;5071003;28;20107;-88
2021/08/20 14:46:03;;;;;;;0.00;0.00;;;;;;;;;;5060003;28;20052;-88
2021/08/20 14:48:50;;;;;;;0.00;0.00;;;24.30;99.70;;;;;;5066478;28;20049;-89
2021/08/20 14:51:38;;;;;;;0.00;0.00;;;;;;;;;;5060795;28;20055;-89
2021/08/20 14:54:27;;;;;;;0.00;0.00;;;24.10;99.60;;;;;;5051314;28;20091;-89
2021/08/20 14:57:43;;;;;;;0.00;0.00;;;24.00;99.20;;;;;;5061114;28;20037;-87
2021/08/20 15:01:33;;;;;;;0.00;0.00;;;23.90;99.10;;;;;;5052944;28;20051;-87
2021/08/20 15:20:41;;;;;;;0.00;0.00;;;23.60;99.70;;;;;;5065322;28;20049;-86